createdAt,value
2019-05-19T00:00:34.765Z,10.56
2019-05-19T00:01:34.739Z,10.47
2019-05-19T00:02:34.709Z,10.51
2019-05-19T00:03:34.683Z,10.48
2019-05-19T00:04:34.658Z,10.44
2019-05-19T00:05:34.631Z,10.27
2019-05-19T00:06:34.604Z,10.29
2019-05-19T00:07:34.635Z,10.36
2019-05-19T00:08:34.556Z,10.41
2019-05-19T00:09:34.528Z,10.42
2019-05-19T00:10:34.501Z,10.40
2019-05-19T00:11:34.475Z,10.38
2019-05-19T00:12:34.494Z,10.25
2019-05-19T00:13:34.424Z,10.34
2019-05-19T00:14:34.398Z,10.29
2019-05-19T00:15:34.372Z,10.22
2019-05-19T00:16:34.357Z,10.26
2019-05-19T00:17:34.319Z,10.27
2019-05-19T00:18:34.299Z,10.27
2019-05-19T00:19:34.265Z,10.14
2019-05-19T00:20:34.241Z,10.05
2019-05-19T00:21:34.218Z,10.04
2019-05-19T00:22:34.188Z,10.04
2019-05-19T00:23:34.164Z,10.01
2019-05-19T00:24:34.135Z,10.15
2019-05-19T00:25:34.114Z,10.07
2019-05-19T00:26:34.084Z,10.14
2019-05-19T00:27:34.058Z,10.01
2019-05-19T00:28:34.033Z,10.01
2019-05-19T00:29:34.004Z,9.91
2019-05-19T00:30:33.978Z,9.96
2019-05-19T00:31:33.953Z,9.86
2019-05-19T00:32:33.926Z,9.87
2019-05-19T00:33:33.901Z,9.79
2019-05-19T00:34:33.871Z,9.83
2019-05-19T00:35:33.864Z,9.75
2019-05-19T00:36:33.820Z,9.84
2019-05-19T00:37:33.794Z,10.04
2019-05-19T00:38:33.786Z,10.01
2019-05-19T00:39:33.747Z,9.94
2019-05-19T00:40:33.715Z,9.94
2019-05-19T00:41:33.689Z,9.86
2019-05-19T00:42:33.662Z,9.86
2019-05-19T00:43:33.641Z,9.83
2019-05-19T00:44:33.615Z,9.81
2019-05-19T00:45:33.589Z,9.79
2019-05-19T00:46:33.564Z,9.81
2019-05-19T00:47:33.530Z,9.74
2019-05-19T00:48:33.504Z,9.75
2019-05-19T00:49:40.844Z,9.74
2019-05-19T00:50:33.452Z,9.71
2019-05-19T00:51:33.426Z,9.72
2019-05-19T00:52:33.399Z,9.72
2019-05-19T00:53:33.373Z,9.72
2019-05-19T00:54:33.350Z,9.66
2019-05-19T00:55:33.320Z,9.57
2019-05-19T00:56:33.294Z,9.66
2019-05-19T00:57:33.267Z,9.71
2019-05-19T00:58:33.243Z,9.72
2019-05-19T00:59:33.214Z,9.79
2019-05-19T01:00:33.188Z,9.86
2019-05-19T01:01:33.162Z,9.87
2019-05-19T01:02:33.134Z,9.84
2019-05-19T01:03:33.110Z,9.81
2019-05-19T01:04:33.081Z,9.76
2019-05-19T01:05:33.062Z,9.72
2019-05-19T01:06:33.027Z,9.69
2019-05-19T01:07:33.004Z,9.56
2019-05-19T01:08:32.977Z,9.60
2019-05-19T01:09:32.950Z,9.50
2019-05-19T01:10:32.925Z,9.46
2019-05-19T01:11:32.897Z,9.46
2019-05-19T01:12:32.870Z,9.46
2019-05-19T01:13:32.843Z,9.43
2019-05-19T01:14:32.816Z,9.39
2019-05-19T01:15:32.791Z,9.28
2019-05-19T01:16:32.766Z,9.31
2019-05-19T01:17:32.737Z,9.48
2019-05-19T01:18:32.710Z,9.50
2019-05-19T01:19:32.688Z,9.57
2019-05-19T01:20:32.657Z,9.57
2019-05-19T01:21:32.632Z,9.47
2019-05-19T01:22:32.604Z,9.51
2019-05-19T01:23:32.577Z,9.64
2019-05-19T01:24:32.562Z,9.72
2019-05-19T01:25:32.526Z,9.72
2019-05-19T01:26:32.496Z,9.74
2019-05-19T01:27:32.474Z,9.72
2019-05-19T01:28:32.445Z,9.79
2019-05-19T01:29:32.418Z,9.74
2019-05-19T01:30:32.391Z,9.78
2019-05-19T01:31:32.368Z,9.76
2019-05-19T01:32:32.338Z,9.81
2019-05-19T01:33:32.318Z,9.69
2019-05-19T01:34:32.284Z,9.74
2019-05-19T01:35:32.258Z,9.64
2019-05-19T01:36:32.231Z,9.66
2019-05-19T01:37:32.214Z,9.54
2019-05-19T01:38:32.176Z,9.54
2019-05-19T01:39:32.151Z,9.61
2019-05-19T01:40:32.127Z,9.56
2019-05-19T01:41:32.102Z,9.68
2019-05-19T01:42:32.116Z,9.56
2019-05-19T01:43:32.044Z,9.68
2019-05-19T01:44:32.022Z,9.65
2019-05-19T01:45:31.990Z,9.58
2019-05-19T01:46:31.963Z,9.57
2019-05-19T01:47:31.942Z,9.51
2019-05-19T01:48:31.911Z,9.47
2019-05-19T01:49:31.886Z,9.48
2019-05-19T01:50:31.855Z,9.47
2019-05-19T01:51:31.829Z,9.58
2019-05-19T01:52:31.804Z,9.69
2019-05-19T01:53:31.777Z,9.69
2019-05-19T01:54:31.749Z,9.84
2019-05-19T01:55:31.725Z,9.87
2019-05-19T01:56:31.773Z,9.81
2019-05-19T01:57:31.672Z,9.83
2019-05-19T01:58:31.643Z,9.86
2019-05-19T01:59:31.617Z,9.83
2019-05-19T02:00:31.592Z,9.81
2019-05-19T02:01:31.566Z,9.75
2019-05-19T02:02:31.537Z,9.78
2019-05-19T02:03:31.511Z,9.75
2019-05-19T02:04:31.485Z,9.66
2019-05-19T02:05:31.463Z,9.74
2019-05-19T02:06:31.432Z,9.75
2019-05-19T02:07:31.417Z,9.81
2019-05-19T02:08:31.379Z,9.79
2019-05-19T02:09:31.353Z,9.84
2019-05-19T02:10:31.327Z,9.91
2019-05-19T02:11:31.304Z,9.81
2019-05-19T02:12:31.272Z,9.84
2019-05-19T02:13:31.247Z,9.91
2019-05-19T02:14:31.219Z,9.84
2019-05-19T02:15:31.193Z,9.83
2019-05-19T02:16:31.166Z,9.83
2019-05-19T02:17:31.141Z,9.90
2019-05-19T02:18:31.113Z,9.93
2019-05-19T02:19:31.087Z,9.94
2019-05-19T02:20:33.593Z,9.97
2019-05-19T02:21:31.035Z,9.94
2019-05-19T02:22:31.007Z,9.94
2019-05-19T02:23:30.979Z,9.89
2019-05-19T02:24:30.954Z,9.87
2019-05-19T02:25:30.928Z,9.83
2019-05-19T02:26:30.901Z,9.86
2019-05-19T02:27:30.877Z,9.86
2019-05-19T02:28:30.853Z,9.91
2019-05-19T02:29:30.825Z,9.86
2019-05-19T02:30:30.794Z,9.97
2019-05-19T02:31:30.769Z,9.83
2019-05-19T02:32:30.744Z,9.94
2019-05-19T02:33:30.717Z,10.02
2019-05-19T02:34:30.689Z,10.02
2019-05-19T02:35:30.688Z,10.04
2019-05-19T02:36:30.639Z,10.09
2019-05-19T02:37:30.610Z,10.08
2019-05-19T02:38:30.583Z,9.99
2019-05-19T02:39:30.558Z,10.11
2019-05-19T02:40:30.531Z,10.05
2019-05-19T02:41:30.504Z,10.08
2019-05-19T02:42:30.477Z,10.17
2019-05-19T02:43:30.455Z,10.15
2019-05-19T02:44:30.425Z,10.18
2019-05-19T02:45:30.399Z,10.27
2019-05-19T02:46:30.373Z,10.26
2019-05-19T02:47:30.349Z,10.25
2019-05-19T02:48:30.329Z,10.22
2019-05-19T02:49:30.318Z,10.33
2019-05-19T02:50:30.265Z,10.38
2019-05-19T02:51:30.238Z,10.41
2019-05-19T02:52:30.212Z,10.41
2019-05-19T02:53:30.187Z,10.47
2019-05-19T02:54:30.163Z,10.47
2019-05-19T02:55:30.139Z,10.63
2019-05-19T02:56:30.107Z,10.55
2019-05-19T02:57:30.082Z,10.56
2019-05-19T02:58:30.054Z,10.59
2019-05-19T02:59:30.028Z,10.66
2019-05-19T03:00:30.000Z,10.70
2019-05-19T03:01:29.979Z,10.63
2019-05-19T03:02:29.955Z,10.78
2019-05-19T03:03:29.922Z,10.76
2019-05-19T03:04:29.899Z,10.71
2019-05-19T03:05:29.871Z,10.73
2019-05-19T03:06:29.845Z,10.84
2019-05-19T03:07:29.832Z,10.85
2019-05-19T03:08:29.793Z,10.82
2019-05-19T03:09:29.779Z,10.91
2019-05-19T03:10:29.739Z,10.89
2019-05-19T03:11:29.714Z,10.88
2019-05-19T03:12:29.689Z,10.84
2019-05-19T03:13:29.666Z,10.86
2019-05-19T03:14:29.635Z,10.91
2019-05-19T03:15:29.611Z,10.96
2019-05-19T03:16:29.583Z,10.92
2019-05-19T03:17:29.557Z,10.96
2019-05-19T03:18:29.531Z,10.97
2019-05-19T03:19:29.520Z,11.04
2019-05-19T03:20:29.481Z,11.07
2019-05-19T03:21:29.455Z,11.02
2019-05-19T03:22:29.433Z,10.99
2019-05-19T03:23:29.412Z,11.03
2019-05-19T03:24:29.404Z,10.96
2019-05-19T03:25:29.351Z,11.00
2019-05-19T03:26:29.324Z,10.96
2019-05-19T03:27:29.299Z,10.92
2019-05-19T03:28:29.279Z,10.91
2019-05-19T03:29:29.249Z,10.86
2019-05-19T03:30:29.221Z,10.84
2019-05-19T03:31:29.419Z,10.92
2019-05-19T03:32:29.178Z,10.88
2019-05-19T03:33:29.146Z,10.94
2019-05-19T03:34:29.123Z,10.94
2019-05-19T03:35:29.102Z,10.99
2019-05-19T03:36:29.064Z,10.96
2019-05-19T03:37:29.143Z,10.91
2019-05-19T03:38:29.019Z,10.99
2019-05-19T03:39:28.987Z,10.92
2019-05-19T03:40:28.962Z,10.91
2019-05-19T03:41:28.938Z,10.91
2019-05-19T03:42:28.925Z,11.02
2019-05-19T03:43:28.885Z,11.07
2019-05-19T03:44:28.862Z,10.99
2019-05-19T03:45:28.834Z,11.09
2019-05-19T03:46:28.807Z,11.14
2019-05-19T03:47:28.782Z,11.14
2019-05-19T03:48:28.760Z,11.14
2019-05-19T03:49:28.730Z,11.22
2019-05-19T03:50:28.702Z,11.27
2019-05-19T03:51:31.395Z,11.29
2019-05-19T03:52:28.651Z,11.32
2019-05-19T03:53:28.634Z,11.22
2019-05-19T03:54:28.603Z,11.33
2019-05-19T03:55:28.575Z,11.27
2019-05-19T03:56:28.551Z,11.22
2019-05-19T03:57:28.524Z,11.25
2019-05-19T03:58:28.511Z,11.29
2019-05-19T03:59:28.471Z,11.24
2019-05-19T04:00:28.446Z,11.25
2019-05-19T04:01:28.421Z,11.22
2019-05-19T04:02:28.394Z,11.25
2019-05-19T04:03:28.369Z,11.37
2019-05-19T04:04:28.342Z,11.29
2019-05-19T04:05:28.323Z,11.25
2019-05-19T04:06:28.301Z,11.27
2019-05-19T04:07:28.267Z,11.18
2019-05-19T04:08:28.249Z,11.19
2019-05-19T04:09:28.219Z,11.09
2019-05-19T04:10:28.190Z,11.17
2019-05-19T04:11:28.163Z,11.24
2019-05-19T04:12:28.137Z,11.17
2019-05-19T04:13:28.115Z,11.21
2019-05-19T04:14:28.088Z,11.25
2019-05-19T04:15:28.062Z,11.39
2019-05-19T04:16:28.037Z,11.42
2019-05-19T04:17:28.015Z,11.51
2019-05-19T04:18:27.986Z,11.57
2019-05-19T04:19:27.964Z,11.76
2019-05-19T04:20:27.934Z,11.76
2019-05-19T04:21:27.919Z,11.82
2019-05-19T04:22:27.884Z,11.85
2019-05-19T04:23:27.860Z,11.88
2019-05-19T04:24:27.834Z,11.82
2019-05-19T04:25:27.817Z,11.91
2019-05-19T04:26:27.788Z,12.05
2019-05-19T04:27:27.756Z,11.98
2019-05-19T04:28:27.732Z,12.01
2019-05-19T04:29:27.707Z,12.04
2019-05-19T04:30:27.681Z,12.05
2019-05-19T04:31:27.661Z,12.13
2019-05-19T04:32:27.630Z,12.20
2019-05-19T04:33:27.619Z,12.20
2019-05-19T04:34:27.580Z,12.28
2019-05-19T04:35:27.554Z,12.28
2019-05-19T04:36:27.532Z,12.31
2019-05-19T04:37:27.505Z,12.28
2019-05-19T04:38:27.485Z,12.41
2019-05-19T04:39:27.456Z,12.64
2019-05-19T04:40:27.431Z,12.78
2019-05-19T04:41:27.405Z,12.87
2019-05-19T04:42:27.387Z,12.86
2019-05-19T04:43:27.362Z,13.11
2019-05-19T04:44:27.334Z,13.08
2019-05-19T04:45:27.307Z,13.19
2019-05-19T04:46:27.282Z,13.25
2019-05-19T04:47:27.260Z,13.32
2019-05-19T04:48:27.235Z,13.42
2019-05-19T04:49:27.208Z,13.52
2019-05-19T04:50:27.183Z,13.52
2019-05-19T04:51:27.157Z,13.59
2019-05-19T04:52:27.134Z,13.54
2019-05-19T04:53:27.118Z,13.66
2019-05-19T04:54:27.087Z,13.81
2019-05-19T04:55:27.063Z,13.85
2019-05-19T04:56:27.043Z,13.99
2019-05-19T04:57:27.017Z,13.89
2019-05-19T04:58:26.988Z,14.06
2019-05-19T04:59:26.967Z,14.10
2019-05-19T05:00:26.941Z,14.18
2019-05-19T05:01:26.917Z,14.24
2019-05-19T05:02:26.893Z,14.32
2019-05-19T05:03:26.874Z,14.40
2019-05-19T05:04:29.353Z,14.54
2019-05-19T05:05:26.819Z,14.65
2019-05-19T05:06:26.810Z,14.68
2019-05-19T05:07:26.773Z,14.70
2019-05-19T05:08:30.170Z,14.84
2019-05-19T05:09:26.739Z,14.89
2019-05-19T05:10:26.700Z,14.91
2019-05-19T05:11:26.676Z,14.92
2019-05-19T05:12:26.652Z,14.92
2019-05-19T05:13:26.629Z,15.16
2019-05-19T05:14:26.607Z,15.17
2019-05-19T05:15:26.588Z,15.41
2019-05-19T05:16:26.560Z,15.39
2019-05-19T05:17:26.539Z,15.53
2019-05-19T05:18:26.512Z,15.39
2019-05-19T05:19:26.488Z,15.36
2019-05-19T05:20:26.466Z,15.46
2019-05-19T05:21:26.443Z,15.60
2019-05-19T05:22:26.422Z,15.76
2019-05-19T05:23:26.395Z,16.05
2019-05-19T05:24:28.542Z,16.39
2019-05-19T05:25:26.352Z,17.14
2019-05-19T05:26:26.326Z,17.87
2019-05-19T05:27:26.305Z,18.32
2019-05-19T05:28:26.284Z,18.02
2019-05-19T05:29:26.260Z,17.74
2019-05-19T05:30:26.241Z,17.44
2019-05-19T05:31:26.217Z,17.21
2019-05-19T05:32:26.194Z,17.00
2019-05-19T05:33:26.175Z,16.86
2019-05-19T05:34:26.150Z,17.62
2019-05-19T05:35:26.128Z,18.00
2019-05-19T05:36:27.833Z,18.69
2019-05-19T05:37:26.084Z,19.18
2019-05-19T05:38:26.065Z,19.59
2019-05-19T05:39:26.042Z,19.59
2019-05-19T05:40:26.023Z,19.44
2019-05-19T05:41:25.999Z,19.43
2019-05-19T05:42:25.979Z,19.19
2019-05-19T05:43:25.960Z,18.92
2019-05-19T05:44:25.939Z,18.73
2019-05-19T05:45:25.917Z,18.33
2019-05-19T05:46:25.897Z,18.32
2019-05-19T05:47:25.877Z,18.44
2019-05-19T05:48:25.862Z,18.36
2019-05-19T05:49:25.843Z,18.39
2019-05-19T05:50:25.816Z,18.32
2019-05-19T05:51:25.796Z,18.54
2019-05-19T05:52:37.995Z,18.73
2019-05-19T05:53:25.756Z,18.75
2019-05-19T05:54:25.736Z,18.90
2019-05-19T05:55:25.715Z,19.02
2019-05-19T05:56:25.696Z,19.04
2019-05-19T05:57:25.676Z,19.13
2019-05-19T05:58:25.656Z,19.04
2019-05-19T05:59:25.638Z,19.13
2019-05-19T06:00:25.618Z,18.91
2019-05-19T06:01:25.596Z,18.95
2019-05-19T06:02:25.576Z,19.07
2019-05-19T06:03:25.555Z,19.29
2019-05-19T06:04:25.536Z,19.54
2019-05-19T06:05:25.521Z,19.83
2019-05-19T06:06:25.497Z,20.17
2019-05-19T06:07:25.479Z,20.62
2019-05-19T06:08:25.459Z,20.88
2019-05-19T06:09:25.440Z,21.47
2019-05-19T06:10:25.422Z,21.64
2019-05-19T06:11:25.401Z,21.98
2019-05-19T06:12:25.383Z,21.99
2019-05-19T06:13:25.367Z,22.52
2019-05-19T06:14:25.347Z,22.82
2019-05-19T06:15:25.331Z,23.12
2019-05-19T06:16:25.332Z,23.25
2019-05-19T06:17:25.294Z,22.94
2019-05-19T06:18:25.281Z,23.09
2019-05-19T06:19:25.265Z,22.95
2019-05-19T06:20:25.242Z,22.83
2019-05-19T06:21:25.225Z,23.35
2019-05-19T06:22:25.210Z,22.97
2019-05-19T06:23:25.194Z,22.88
2019-05-19T06:24:25.176Z,23.07
2019-05-19T06:25:25.197Z,22.98
2019-05-19T06:26:25.144Z,23.15
2019-05-19T06:27:25.128Z,23.09
2019-05-19T06:28:25.113Z,22.98
2019-05-19T06:29:25.097Z,23.04
2019-05-19T06:30:25.082Z,23.38
2019-05-19T06:31:25.068Z,23.84
2019-05-19T06:32:25.047Z,24.18
2019-05-19T06:33:25.031Z,24.64
2019-05-19T06:34:25.015Z,25.09
2019-05-19T06:35:25.085Z,25.61
2019-05-19T06:36:24.984Z,25.76
2019-05-19T06:37:24.977Z,25.88
2019-05-19T06:38:24.969Z,25.97
2019-05-19T06:39:24.940Z,25.99
2019-05-19T06:40:24.936Z,25.98
2019-05-19T06:41:24.909Z,26.21
2019-05-19T06:42:24.894Z,26.57
2019-05-19T06:43:24.880Z,25.80
2019-05-19T06:44:24.867Z,25.17
2019-05-19T06:45:24.870Z,25.23
2019-05-19T06:46:24.849Z,25.36
2019-05-19T06:47:24.879Z,25.65
2019-05-19T06:48:24.808Z,25.80
2019-05-19T06:49:24.797Z,26.25
2019-05-19T06:50:24.784Z,26.02
2019-05-19T06:51:24.773Z,26.06
2019-05-19T06:52:24.752Z,26.55
2019-05-19T06:53:24.738Z,26.75
2019-05-19T06:54:24.724Z,27.04
2019-05-19T06:55:24.734Z,27.09
2019-05-19T06:56:24.698Z,27.03
2019-05-19T06:57:24.684Z,27.22
2019-05-19T06:58:24.669Z,27.07
2019-05-19T06:59:24.657Z,27.32
2019-05-19T07:00:24.653Z,27.46
2019-05-19T07:01:24.630Z,26.95
2019-05-19T07:02:24.623Z,27.19
2019-05-19T07:03:24.605Z,27.28
2019-05-19T07:04:24.590Z,27.79
2019-05-19T07:05:24.579Z,28.03
2019-05-19T07:06:24.565Z,27.77
2019-05-19T07:07:24.553Z,27.19
2019-05-19T07:08:24.537Z,26.75
2019-05-19T07:09:24.536Z,27.17
2019-05-19T07:10:24.510Z,27.07
2019-05-19T07:11:24.504Z,27.14
2019-05-19T07:12:24.488Z,27.09
2019-05-19T07:13:24.501Z,26.77
2019-05-19T07:14:24.459Z,27.00
2019-05-19T07:15:24.473Z,26.77
2019-05-19T07:16:24.432Z,26.45
2019-05-19T07:17:24.420Z,26.40
2019-05-19T07:18:24.407Z,27.04
2019-05-19T07:19:24.393Z,27.34
2019-05-19T07:20:24.383Z,27.60
2019-05-19T07:21:24.368Z,27.93
2019-05-19T07:22:24.354Z,28.19
2019-05-19T07:23:28.198Z,28.24
2019-05-19T07:24:24.329Z,28.48
2019-05-19T07:25:24.317Z,28.51
2019-05-19T07:26:24.303Z,29.05
2019-05-19T07:27:24.291Z,29.21
2019-05-19T07:28:24.278Z,29.55
2019-05-19T07:29:24.266Z,29.78
2019-05-19T07:30:24.258Z,29.86
2019-05-19T07:31:24.247Z,29.24
2019-05-19T07:32:24.230Z,29.41
2019-05-19T07:33:24.219Z,29.48
2019-05-19T07:34:24.204Z,29.55
2019-05-19T07:35:24.215Z,29.21
2019-05-19T07:36:24.181Z,28.73
2019-05-19T07:37:24.170Z,28.43
2019-05-19T07:38:24.158Z,28.07
2019-05-19T07:39:24.148Z,28.19
2019-05-19T07:40:24.133Z,28.67
2019-05-19T07:41:24.125Z,29.00
2019-05-19T07:42:24.109Z,29.36
2019-05-19T07:43:24.214Z,29.79
2019-05-19T07:44:24.085Z,29.87
2019-05-19T07:45:24.074Z,29.83
2019-05-19T07:46:24.061Z,29.94
2019-05-19T07:47:24.050Z,29.57
2019-05-19T07:48:24.037Z,29.60
2019-05-19T07:49:24.029Z,29.97
2019-05-19T07:50:24.013Z,30.43
2019-05-19T07:51:24.019Z,30.46
2019-05-19T07:52:23.992Z,30.55
2019-05-19T07:53:23.979Z,30.32
2019-05-19T07:54:23.966Z,30.35
2019-05-19T07:55:23.954Z,30.54
2019-05-19T07:56:23.944Z,30.20
2019-05-19T07:57:23.933Z,30.23
2019-05-19T07:58:23.918Z,29.92
2019-05-19T07:59:23.909Z,29.53
2019-05-19T08:00:23.896Z,29.19
2019-05-19T08:01:23.885Z,29.61
2019-05-19T08:02:23.954Z,29.82
2019-05-19T08:03:23.861Z,29.58
2019-05-19T08:04:23.849Z,30.01
2019-05-19T08:05:23.837Z,30.04
2019-05-19T08:06:23.825Z,29.86
2019-05-19T08:07:23.813Z,29.86
2019-05-19T08:08:23.802Z,30.00
2019-05-19T08:09:23.789Z,30.35
2019-05-19T08:10:23.820Z,30.11
2019-05-19T08:11:23.765Z,30.26
2019-05-19T08:12:23.755Z,30.57
2019-05-19T08:13:23.745Z,30.65
2019-05-19T08:14:23.731Z,30.43
2019-05-19T08:15:23.722Z,30.34
2019-05-19T08:16:23.707Z,30.39
2019-05-19T08:17:25.837Z,30.58
2019-05-19T08:18:23.686Z,30.37
2019-05-19T08:19:23.673Z,30.04
2019-05-19T08:20:23.875Z,30.00
2019-05-19T08:21:23.659Z,30.02
2019-05-19T08:22:23.638Z,29.97
2019-05-19T08:23:23.628Z,30.22
2019-05-19T08:24:23.724Z,30.54
2019-05-19T08:25:23.606Z,31.02
2019-05-19T08:26:23.595Z,30.83
2019-05-19T08:27:23.583Z,30.45
2019-05-19T08:28:23.571Z,30.84
2019-05-19T08:29:23.560Z,30.82
2019-05-19T08:30:23.549Z,30.92
2019-05-19T08:31:23.536Z,31.16
2019-05-19T08:32:23.526Z,30.79
2019-05-19T08:33:23.524Z,30.76
2019-05-19T08:34:23.503Z,30.91
2019-05-19T08:35:23.544Z,30.65
2019-05-19T08:36:23.482Z,30.64
2019-05-19T08:37:23.472Z,30.23
2019-05-19T08:38:23.459Z,30.54
2019-05-19T08:39:23.448Z,29.71
2019-05-19T08:40:23.437Z,29.60
2019-05-19T08:41:23.426Z,29.71
2019-05-19T08:42:23.418Z,29.58
2019-05-19T08:43:23.403Z,29.14
2019-05-19T08:44:23.397Z,29.11
2019-05-19T08:45:23.382Z,29.24
2019-05-19T08:46:23.369Z,29.74
2019-05-19T08:47:23.364Z,30.37
2019-05-19T08:48:23.347Z,30.61
2019-05-19T08:49:23.359Z,30.53
2019-05-19T08:50:23.324Z,30.57
2019-05-19T08:51:23.312Z,30.89
2019-05-19T08:52:23.301Z,31.14
2019-05-19T08:53:23.289Z,31.02
2019-05-19T08:54:23.280Z,30.38
2019-05-19T08:55:23.270Z,30.22
2019-05-19T08:56:23.259Z,30.42
2019-05-19T08:57:23.244Z,30.20
2019-05-19T08:58:23.233Z,30.19
2019-05-19T08:59:23.222Z,30.39
2019-05-19T09:00:23.211Z,30.57
2019-05-19T09:01:23.199Z,30.69
2019-05-19T09:02:23.186Z,30.75
2019-05-19T09:03:23.176Z,29.73
2019-05-19T09:04:23.164Z,30.10
2019-05-19T09:05:23.158Z,30.01
2019-05-19T09:06:23.143Z,30.24
2019-05-19T09:07:23.131Z,30.83
2019-05-19T09:08:23.259Z,30.61
2019-05-19T09:09:23.109Z,30.92
2019-05-19T09:10:23.098Z,30.98
2019-05-19T09:11:23.087Z,31.25
2019-05-19T09:12:23.075Z,31.39
2019-05-19T09:13:23.064Z,31.14
2019-05-19T09:14:23.051Z,31.14
2019-05-19T09:15:23.041Z,30.61
2019-05-19T09:16:23.031Z,29.95
2019-05-19T09:17:23.019Z,30.35
2019-05-19T09:18:23.008Z,30.27
2019-05-19T09:19:22.999Z,30.49
2019-05-19T09:20:22.987Z,30.39
2019-05-19T09:21:22.993Z,30.23
2019-05-19T09:22:22.964Z,30.22
2019-05-19T09:23:22.954Z,30.49
2019-05-19T09:24:30.340Z,31.19
2019-05-19T09:25:22.934Z,30.99
2019-05-19T09:26:22.918Z,31.06
2019-05-19T09:27:22.909Z,30.77
2019-05-19T09:28:22.902Z,30.73
2019-05-19T09:29:22.887Z,30.91
2019-05-19T09:30:22.874Z,30.89
2019-05-19T09:31:22.863Z,30.77
2019-05-19T09:32:22.852Z,30.45
2019-05-19T09:33:22.842Z,30.00
2019-05-19T09:34:22.833Z,29.71
2019-05-19T09:35:22.818Z,30.23
2019-05-19T09:36:22.807Z,30.65
2019-05-19T09:37:22.797Z,30.49
2019-05-19T09:38:22.785Z,29.78
2019-05-19T09:39:22.774Z,30.08
2019-05-19T09:40:22.765Z,29.73
2019-05-19T09:41:22.751Z,29.55
2019-05-19T09:42:22.740Z,29.52
2019-05-19T09:43:22.728Z,29.31
2019-05-19T09:44:22.716Z,29.23
2019-05-19T09:45:22.705Z,28.96
2019-05-19T09:46:22.692Z,29.06
2019-05-19T09:47:22.681Z,29.24
2019-05-19T09:48:22.673Z,29.42
2019-05-19T09:49:22.658Z,29.76
2019-05-19T09:50:22.646Z,29.85
2019-05-19T09:51:22.634Z,30.05
2019-05-19T09:52:22.622Z,29.95
2019-05-19T09:53:22.610Z,30.19
2019-05-19T09:54:22.599Z,30.88
2019-05-19T09:55:22.621Z,31.17
2019-05-19T09:56:22.575Z,31.46
2019-05-19T09:57:22.565Z,31.50
2019-05-19T09:58:22.551Z,31.44
2019-05-19T09:59:22.546Z,31.26
2019-05-19T10:00:22.538Z,30.91
2019-05-19T10:01:22.516Z,30.23
2019-05-19T10:02:22.504Z,30.00
2019-05-19T10:03:22.493Z,30.19
2019-05-19T10:04:22.481Z,30.08
2019-05-19T10:05:22.473Z,30.39
2019-05-19T10:06:22.468Z,30.22
2019-05-19T10:07:22.447Z,30.57
2019-05-19T10:08:22.436Z,30.88
2019-05-19T10:09:22.424Z,30.88
2019-05-19T10:10:22.413Z,31.23
2019-05-19T10:11:22.438Z,31.57
2019-05-19T10:12:22.390Z,30.91
2019-05-19T10:13:22.395Z,30.32
2019-05-19T10:14:22.367Z,29.28
2019-05-19T10:15:22.355Z,28.04
2019-05-19T10:16:22.343Z,28.21
2019-05-19T10:17:22.332Z,28.46
2019-05-19T10:18:22.319Z,29.05
2019-05-19T10:19:22.308Z,29.58
2019-05-19T10:20:22.296Z,30.69
2019-05-19T10:21:22.284Z,30.84
2019-05-19T10:22:22.272Z,30.82
2019-05-19T10:23:22.259Z,30.82
2019-05-19T10:24:22.249Z,29.78
2019-05-19T10:25:23.235Z,28.90
2019-05-19T10:26:22.223Z,28.17
2019-05-19T10:27:22.211Z,27.07
2019-05-19T10:28:22.200Z,26.97
2019-05-19T10:29:22.188Z,28.04
2019-05-19T10:30:22.173Z,28.76
2019-05-19T10:31:22.161Z,28.31
2019-05-19T10:32:22.149Z,27.62
2019-05-19T10:33:22.137Z,28.34
2019-05-19T10:34:22.139Z,29.02
2019-05-19T10:35:22.108Z,29.02
2019-05-19T10:36:22.303Z,29.43
2019-05-19T10:37:22.184Z,28.93
2019-05-19T10:38:22.236Z,28.00
2019-05-19T10:39:22.076Z,27.50
2019-05-19T10:40:22.045Z,26.85
2019-05-19T10:41:22.031Z,26.52
2019-05-19T10:42:22.020Z,26.13
2019-05-19T10:43:22.207Z,26.06
2019-05-19T10:44:21.989Z,26.85
2019-05-19T10:45:22.139Z,27.93
2019-05-19T10:46:22.162Z,28.54
2019-05-19T10:47:22.152Z,27.66
2019-05-19T10:48:22.140Z,27.47
2019-05-19T10:49:22.136Z,28.21
2019-05-19T10:50:22.077Z,29.27
2019-05-19T10:51:21.920Z,29.52
2019-05-19T10:52:22.047Z,29.23
2019-05-19T10:53:22.033Z,29.94
2019-05-19T10:54:21.850Z,29.89
2019-05-19T10:55:35.149Z,28.90
2019-05-19T10:56:21.825Z,28.68
2019-05-19T10:57:21.811Z,28.46
2019-05-19T10:58:21.795Z,27.99
2019-05-19T10:59:21.781Z,27.77
2019-05-19T11:00:21.769Z,27.50
2019-05-19T11:01:21.755Z,26.92
2019-05-19T11:02:21.741Z,26.70
2019-05-19T11:03:21.734Z,26.32
2019-05-19T11:04:21.718Z,26.07
2019-05-19T11:05:21.699Z,26.33
2019-05-19T11:06:21.685Z,27.25
2019-05-19T11:07:21.672Z,28.18
2019-05-19T11:08:21.659Z,28.67
2019-05-19T11:09:21.643Z,28.18
2019-05-19T11:10:21.627Z,27.84
2019-05-19T11:11:21.614Z,27.66
2019-05-19T11:12:21.602Z,28.29
2019-05-19T11:13:21.585Z,28.68
2019-05-19T11:14:21.573Z,29.19
2019-05-19T11:15:21.558Z,29.04
2019-05-19T11:16:21.543Z,29.23
2019-05-19T11:17:21.529Z,29.83
2019-05-19T11:18:21.515Z,30.64
2019-05-19T11:19:21.503Z,30.97
2019-05-19T11:20:21.488Z,31.13
2019-05-19T11:21:21.475Z,30.32
2019-05-19T11:22:21.466Z,29.58
2019-05-19T11:23:21.447Z,29.11
2019-05-19T11:24:21.463Z,28.98
2019-05-19T11:25:33.328Z,28.44
2019-05-19T11:26:21.406Z,28.81
2019-05-19T11:27:21.393Z,29.04
2019-05-19T11:28:21.380Z,29.57
2019-05-19T11:29:21.367Z,29.55
2019-05-19T11:30:21.352Z,29.60
2019-05-19T11:31:21.348Z,28.90
2019-05-19T11:32:21.325Z,28.09
2019-05-19T11:33:21.330Z,27.44
2019-05-19T11:34:21.301Z,27.02
2019-05-19T11:35:21.282Z,26.87
2019-05-19T11:36:21.270Z,26.44
2019-05-19T11:37:21.257Z,27.59
2019-05-19T11:38:21.241Z,28.29
2019-05-19T11:39:21.227Z,29.16
2019-05-19T11:40:21.214Z,30.08
2019-05-19T11:41:21.199Z,30.83
2019-05-19T11:42:21.186Z,31.51
2019-05-19T11:43:21.171Z,31.56
2019-05-19T11:44:21.160Z,31.41
2019-05-19T11:45:21.146Z,31.65
2019-05-19T11:46:21.133Z,31.16
2019-05-19T11:47:21.118Z,30.88
2019-05-19T11:48:21.105Z,30.49
2019-05-19T11:49:21.092Z,30.51
2019-05-19T11:50:21.082Z,31.12
2019-05-19T11:51:21.066Z,31.81
2019-05-19T11:52:21.053Z,31.39
2019-05-19T11:53:21.041Z,31.70
2019-05-19T11:54:21.027Z,31.23
2019-05-19T11:55:21.014Z,30.01
2019-05-19T11:56:21.002Z,29.36
2019-05-19T11:57:20.991Z,28.64
2019-05-19T11:58:20.975Z,27.84
2019-05-19T11:59:21.011Z,27.02
2019-05-19T12:00:20.951Z,26.97
2019-05-19T12:01:21.122Z,26.76
2019-05-19T12:02:21.077Z,26.76
2019-05-19T12:03:21.089Z,26.52
2019-05-19T12:04:21.033Z,27.74
2019-05-19T12:05:21.075Z,28.52
2019-05-19T12:06:21.047Z,29.41
2019-05-19T12:07:21.012Z,30.08
2019-05-19T12:08:20.986Z,30.65
2019-05-19T12:09:21.044Z,30.92
2019-05-19T12:10:21.014Z,30.97
2019-05-19T12:11:20.954Z,31.39
2019-05-19T12:12:20.967Z,31.34
2019-05-19T12:13:20.799Z,31.76
2019-05-19T12:14:20.961Z,30.54
2019-05-19T12:15:20.746Z,29.26
2019-05-19T12:16:20.927Z,28.90
2019-05-19T12:17:20.892Z,29.27
2019-05-19T12:18:20.866Z,29.63
2019-05-19T12:19:20.817Z,29.80
2019-05-19T12:20:20.877Z,30.22
2019-05-19T12:21:20.697Z,30.49
2019-05-19T12:22:20.829Z,30.84
2019-05-19T12:23:20.819Z,30.84
2019-05-19T12:24:20.785Z,31.29
2019-05-19T12:25:20.786Z,31.44
2019-05-19T12:26:23.533Z,31.43
2019-05-19T12:27:20.588Z,31.14
2019-05-19T12:28:20.577Z,31.01
2019-05-19T12:29:20.562Z,31.25
2019-05-19T12:30:20.552Z,31.56
2019-05-19T12:31:20.537Z,31.39
2019-05-19T12:32:20.526Z,30.38
2019-05-19T12:33:20.512Z,29.89
2019-05-19T12:34:20.498Z,29.52
2019-05-19T12:35:20.486Z,29.60
2019-05-19T12:36:20.474Z,30.43
2019-05-19T12:37:20.460Z,30.89
2019-05-19T12:38:20.446Z,30.79
2019-05-19T12:39:20.433Z,30.35
2019-05-19T12:40:22.588Z,30.54
2019-05-19T12:41:20.407Z,30.37
2019-05-19T12:42:20.395Z,30.38
2019-05-19T12:43:20.382Z,30.42
2019-05-19T12:44:20.389Z,30.49
2019-05-19T12:45:20.358Z,30.91
2019-05-19T12:46:20.343Z,31.35
2019-05-19T12:47:20.332Z,31.20
2019-05-19T12:48:20.318Z,31.25
2019-05-19T12:49:20.310Z,32.04
2019-05-19T12:50:20.292Z,32.44
2019-05-19T12:51:20.280Z,32.45
2019-05-19T12:52:20.270Z,32.29
2019-05-19T12:53:20.258Z,32.52
2019-05-19T12:54:20.243Z,32.52
2019-05-19T12:55:20.231Z,32.25
2019-05-19T12:56:20.224Z,32.45